sensor_id;sensor_type;location;lat;lon;timestamp;P1;durP1;ratioP1;P2;durP2;ratioP2
45328;SDS011;31063;48.356;10.896;2022-07-12T00:01:28;6.83;;;5.00;;
45328;SDS011;31063;48.356;10.896;2022-07-12T00:03:54;5.40;;;4.90;;
45328;SDS011;31063;48.356;10.896;2022-07-12T00:06:19;6.90;;;5.60;;
45328;SDS011;31063;48.356;10.896;2022-07-12T00:08:45;8.50;;;5.27;;
45328;SDS011;31063;48.356;10.896;2022-07-12T00:11:11;6.27;;;4.93;;
45328;SDS011;31063;48.356;10.896;2022-07-12T00:13:36;5.87;;;5.33;;
45328;SDS011;31063;48.356;10.896;2022-07-12T00:16:02;5.77;;;5.27;;
45328;SDS011;31063;48.356;10.896;2022-07-12T00:18:28;5.53;;;4.90;;
45328;SDS011;31063;48.356;10.896;2022-07-12T00:20:53;6.10;;;4.77;;
45328;SDS011;31063;48.356;10.896;2022-07-12T00:23:19;8.47;;;5.40;;
45328;SDS011;31063;48.356;10.896;2022-07-12T00:25:45;6.03;;;5.43;;
45328;SDS011;31063;48.356;10.896;2022-07-12T00:28:10;8.70;;;5.30;;
45328;SDS011;31063;48.356;10.896;2022-07-12T00:30:36;8.55;;;5.78;;
45328;SDS011;31063;48.356;10.896;2022-07-12T00:33:02;5.57;;;5.07;;
45328;SDS011;31063;48.356;10.896;2022-07-12T00:35:27;8.60;;;5.43;;
45328;SDS011;31063;48.356;10.896;2022-07-12T00:37:53;6.13;;;5.30;;
45328;SDS011;31063;48.356;10.896;2022-07-12T00:40:18;5.67;;;5.07;;
45328;SDS011;31063;48.356;10.896;2022-07-12T00:42:44;6.00;;;5.37;;
45328;SDS011;31063;48.356;10.896;2022-07-12T00:45:10;6.10;;;5.50;;
45328;SDS011;31063;48.356;10.896;2022-07-12T00:47:40;6.05;;;5.25;;
45328;SDS011;31063;48.356;10.896;2022-07-12T00:50:17;5.93;;;5.10;;
45328;SDS011;31063;48.356;10.896;2022-07-12T00:52:45;8.55;;;6.40;;
45328;SDS011;31063;48.356;10.896;2022-07-12T00:55:12;9.50;;;6.35;;
45328;SDS011;31063;48.356;10.896;2022-07-12T00:57:40;7.15;;;6.03;;
45328;SDS011;31063;48.356;10.896;2022-07-12T01:00:13;6.82;;;6.13;;
45328;SDS011;31063;48.356;10.896;2022-07-12T01:02:40;6.65;;;5.65;;
45328;SDS011;31063;48.356;10.896;2022-07-12T01:05:07;7.88;;;6.28;;
45328;SDS011;31063;48.356;10.896;2022-07-12T01:07:34;6.82;;;6.13;;
45328;SDS011;31063;48.356;10.896;2022-07-12T01:10:00;11.15;;;5.80;;
45328;SDS011;31063;48.356;10.896;2022-07-12T01:12:27;7.10;;;5.85;;
45328;SDS011;31063;48.356;10.896;2022-07-12T01:14:53;6.63;;;5.93;;
45328;SDS011;31063;48.356;10.896;2022-07-12T01:17:26;9.90;;;6.40;;
45328;SDS011;31063;48.356;10.896;2022-07-12T01:19:53;6.00;;;5.40;;
45328;SDS011;31063;48.356;10.896;2022-07-12T01:22:21;7.43;;;6.03;;
45328;SDS011;31063;48.356;10.896;2022-07-12T01:24:52;8.73;;;6.22;;
45328;SDS011;31063;48.356;10.896;2022-07-12T01:27:18;7.60;;;6.10;;
45328;SDS011;31063;48.356;10.896;2022-07-12T01:29:44;12.53;;;6.50;;
45328;SDS011;31063;48.356;10.896;2022-07-12T01:32:09;7.53;;;6.10;;
45328;SDS011;31063;48.356;10.896;2022-07-12T01:37:17;7.83;;;6.27;;
45328;SDS011;31063;48.356;10.896;2022-07-12T01:39:43;8.05;;;6.20;;
45328;SDS011;31063;48.356;10.896;2022-07-12T01:42:09;8.23;;;6.72;;
45328;SDS011;31063;48.356;10.896;2022-07-12T01:44:35;7.97;;;6.50;;
45328;SDS011;31063;48.356;10.896;2022-07-12T01:47:02;8.25;;;6.53;;
45328;SDS011;31063;48.356;10.896;2022-07-12T01:49:28;6.07;;;5.50;;
45328;SDS011;31063;48.356;10.896;2022-07-12T01:51:54;6.43;;;5.73;;
45328;SDS011;31063;48.356;10.896;2022-07-12T01:54:20;7.10;;;5.65;;
45328;SDS011;31063;48.356;10.896;2022-07-12T01:56:46;6.75;;;5.85;;
45328;SDS011;31063;48.356;10.896;2022-07-12T01:59:12;7.20;;;6.35;;
45328;SDS011;31063;48.356;10.896;2022-07-12T02:01:38;8.30;;;6.70;;
45328;SDS011;31063;48.356;10.896;2022-07-12T02:04:04;7.57;;;6.53;;
45328;SDS011;31063;48.356;10.896;2022-07-12T02:06:30;7.55;;;6.72;;
45328;SDS011;31063;48.356;10.896;2022-07-12T02:08:56;7.65;;;6.43;;
45328;SDS011;31063;48.356;10.896;2022-07-12T02:11:21;7.53;;;6.20;;
45328;SDS011;31063;48.356;10.896;2022-07-12T02:13:47;8.00;;;6.13;;
45328;SDS011;31063;48.356;10.896;2022-07-12T02:16:13;6.85;;;6.15;;
45328;SDS011;31063;48.356;10.896;2022-07-12T02:18:38;7.53;;;6.30;;
45328;SDS011;31063;48.356;10.896;2022-07-12T02:21:04;7.97;;;6.37;;
45328;SDS011;31063;48.356;10.896;2022-07-12T02:23:30;7.45;;;5.78;;
45328;SDS011;31063;48.356;10.896;2022-07-12T02:25:55;7.47;;;6.50;;
45328;SDS011;31063;48.356;10.896;2022-07-12T02:28:21;6.43;;;5.83;;
45328;SDS011;31063;48.356;10.896;2022-07-12T02:30:47;7.57;;;6.37;;
45328;SDS011;31063;48.356;10.896;2022-07-12T02:33:12;7.33;;;6.33;;
45328;SDS011;31063;48.356;10.896;2022-07-12T02:35:44;6.82;;;5.80;;
45328;SDS011;31063;48.356;10.896;2022-07-12T02:38:09;6.22;;;5.63;;
45328;SDS011;31063;48.356;10.896;2022-07-12T02:40:35;6.10;;;5.40;;
45328;SDS011;31063;48.356;10.896;2022-07-12T02:43:19;6.13;;;5.35;;
45328;SDS011;31063;48.356;10.896;2022-07-12T02:45:49;6.38;;;4.97;;
45328;SDS011;31063;48.356;10.896;2022-07-12T02:48:15;6.57;;;5.30;;
45328;SDS011;31063;48.356;10.896;2022-07-12T02:50:41;5.55;;;5.00;;
45328;SDS011;31063;48.356;10.896;2022-07-12T02:53:07;6.85;;;5.97;;
45328;SDS011;31063;48.356;10.896;2022-07-12T02:55:35;5.75;;;5.18;;
45328;SDS011;31063;48.356;10.896;2022-07-12T02:58:01;6.63;;;5.93;;
45328;SDS011;31063;48.356;10.896;2022-07-12T03:00:27;7.65;;;6.00;;
45328;SDS011;31063;48.356;10.896;2022-07-12T03:02:53;6.28;;;5.68;;
45328;SDS011;31063;48.356;10.896;2022-07-12T03:05:19;7.10;;;5.80;;
45328;SDS011;31063;48.356;10.896;2022-07-12T03:07:45;6.00;;;5.40;;
45328;SDS011;31063;48.356;10.896;2022-07-12T03:10:10;10.20;;;5.87;;
45328;SDS011;31063;48.356;10.896;2022-07-12T03:12:36;6.83;;;5.70;;
45328;SDS011;31063;48.356;10.896;2022-07-12T03:15:02;6.65;;;5.93;;
45328;SDS011;31063;48.356;10.896;2022-07-12T03:17:29;9.68;;;6.38;;
45328;SDS011;31063;48.356;10.896;2022-07-12T03:19:55;7.03;;;6.03;;
45328;SDS011;31063;48.356;10.896;2022-07-12T03:22:20;6.83;;;6.13;;
45328;SDS011;31063;48.356;10.896;2022-07-12T03:24:46;6.90;;;5.77;;
45328;SDS011;31063;48.356;10.896;2022-07-12T03:27:12;7.00;;;6.30;;
45328;SDS011;31063;48.356;10.896;2022-07-12T03:29:37;7.43;;;5.50;;
45328;SDS011;31063;48.356;10.896;2022-07-12T03:32:04;8.13;;;6.57;;
45328;SDS011;31063;48.356;10.896;2022-07-12T03:34:31;8.70;;;6.40;;
45328;SDS011;31063;48.356;10.896;2022-07-12T03:36:57;6.75;;;6.05;;
45328;SDS011;31063;48.356;10.896;2022-07-12T03:39:22;7.73;;;5.67;;
45328;SDS011;31063;48.356;10.896;2022-07-12T03:41:48;8.03;;;5.93;;
45328;SDS011;31063;48.356;10.896;2022-07-12T03:44:14;8.60;;;6.20;;
45328;SDS011;31063;48.356;10.896;2022-07-12T03:46:39;6.93;;;6.10;;
45328;SDS011;31063;48.356;10.896;2022-07-12T03:49:05;7.27;;;6.40;;
45328;SDS011;31063;48.356;10.896;2022-07-12T03:51:31;7.17;;;6.47;;
45328;SDS011;31063;48.356;10.896;2022-07-12T03:53:56;6.00;;;5.40;;
45328;SDS011;31063;48.356;10.896;2022-07-12T03:56:22;7.80;;;6.13;;
45328;SDS011;31063;48.356;10.896;2022-07-12T03:59:06;6.95;;;6.00;;
45328;SDS011;31063;48.356;10.896;2022-07-12T04:01:32;7.93;;;6.27;;
45328;SDS011;31063;48.356;10.896;2022-07-12T04:03:58;7.03;;;6.32;;
45328;SDS011;31063;48.356;10.896;2022-07-12T04:06:23;6.88;;;6.05;;
45328;SDS011;31063;48.356;10.896;2022-07-12T04:08:49;8.23;;;6.10;;
45328;SDS011;31063;48.356;10.896;2022-07-12T04:11:15;8.10;;;6.25;;
45328;SDS011;31063;48.356;10.896;2022-07-12T04:13:41;7.33;;;5.93;;
45328;SDS011;31063;48.356;10.896;2022-07-12T04:16:07;8.63;;;6.93;;
45328;SDS011;31063;48.356;10.896;2022-07-12T04:18:32;7.17;;;6.30;;
45328;SDS011;31063;48.356;10.896;2022-07-12T04:20:58;7.38;;;6.63;;
45328;SDS011;31063;48.356;10.896;2022-07-12T04:23:24;7.73;;;6.20;;
45328;SDS011;31063;48.356;10.896;2022-07-12T04:25:50;8.57;;;6.80;;
45328;SDS011;31063;48.356;10.896;2022-07-12T04:30:42;9.98;;;6.75;;
45328;SDS011;31063;48.356;10.896;2022-07-12T04:33:11;8.65;;;6.75;;
45328;SDS011;31063;48.356;10.896;2022-07-12T04:35:37;8.45;;;7.03;;
45328;SDS011;31063;48.356;10.896;2022-07-12T04:38:03;9.90;;;7.27;;
45328;SDS011;31063;48.356;10.896;2022-07-12T04:40:30;10.27;;;7.32;;
45328;SDS011;31063;48.356;10.896;2022-07-12T04:42:55;8.32;;;6.68;;
45328;SDS011;31063;48.356;10.896;2022-07-12T04:45:22;8.80;;;6.67;;
45328;SDS011;31063;48.356;10.896;2022-07-12T04:47:47;7.13;;;6.18;;
45328;SDS011;31063;48.356;10.896;2022-07-12T04:50:13;7.87;;;6.77;;
45328;SDS011;31063;48.356;10.896;2022-07-12T04:52:38;7.23;;;6.33;;
45328;SDS011;31063;48.356;10.896;2022-07-12T04:55:04;9.23;;;7.50;;
45328;SDS011;31063;48.356;10.896;2022-07-12T04:57:31;8.68;;;7.38;;
45328;SDS011;31063;48.356;10.896;2022-07-12T04:59:56;8.60;;;7.77;;
45328;SDS011;31063;48.356;10.896;2022-07-12T05:02:22;10.20;;;7.83;;
45328;SDS011;31063;48.356;10.896;2022-07-12T05:04:47;10.27;;;7.97;;
45328;SDS011;31063;48.356;10.896;2022-07-12T05:07:13;9.67;;;8.20;;
45328;SDS011;31063;48.356;10.896;2022-07-12T05:09:39;11.85;;;7.82;;
45328;SDS011;31063;48.356;10.896;2022-07-12T05:12:05;9.27;;;7.37;;
45328;SDS011;31063;48.356;10.896;2022-07-12T05:14:31;8.07;;;7.22;;
45328;SDS011;31063;48.356;10.896;2022-07-12T05:16:56;9.63;;;7.77;;
45328;SDS011;31063;48.356;10.896;2022-07-12T05:19:22;10.18;;;7.68;;
45328;SDS011;31063;48.356;10.896;2022-07-12T05:21:48;10.68;;;8.27;;
45328;SDS011;31063;48.356;10.896;2022-07-12T05:24:14;9.37;;;7.67;;
45328;SDS011;31063;48.356;10.896;2022-07-12T05:26:39;13.00;;;8.27;;
45328;SDS011;31063;48.356;10.896;2022-07-12T05:29:06;11.65;;;8.55;;
45328;SDS011;31063;48.356;10.896;2022-07-12T05:31:31;10.90;;;8.87;;
45328;SDS011;31063;48.356;10.896;2022-07-12T05:33:57;11.05;;;9.18;;
45328;SDS011;31063;48.356;10.896;2022-07-12T05:36:23;10.35;;;9.02;;
45328;SDS011;31063;48.356;10.896;2022-07-12T05:38:49;11.03;;;8.97;;
45328;SDS011;31063;48.356;10.896;2022-07-12T05:41:15;12.77;;;9.27;;
45328;SDS011;31063;48.356;10.896;2022-07-12T05:43:40;10.87;;;7.87;;
45328;SDS011;31063;48.356;10.896;2022-07-12T05:46:06;10.90;;;7.97;;
45328;SDS011;31063;48.356;10.896;2022-07-12T05:48:33;9.38;;;8.02;;
45328;SDS011;31063;48.356;10.896;2022-07-12T05:50:59;8.03;;;7.30;;
45328;SDS011;31063;48.356;10.896;2022-07-12T05:53:44;7.72;;;6.95;;
45328;SDS011;31063;48.356;10.896;2022-07-12T05:56:10;7.00;;;6.20;;
45328;SDS011;31063;48.356;10.896;2022-07-12T05:58:35;9.63;;;6.37;;
45328;SDS011;31063;48.356;10.896;2022-07-12T06:01:01;7.50;;;6.37;;
45328;SDS011;31063;48.356;10.896;2022-07-12T06:03:27;7.17;;;6.30;;
45328;SDS011;31063;48.356;10.896;2022-07-12T06:05:52;7.47;;;5.77;;
45328;SDS011;31063;48.356;10.896;2022-07-12T06:08:18;7.82;;;6.10;;
45328;SDS011;31063;48.356;10.896;2022-07-12T06:10:44;9.57;;;6.27;;
45328;SDS011;31063;48.356;10.896;2022-07-12T06:13:10;10.97;;;6.73;;
45328;SDS011;31063;48.356;10.896;2022-07-12T06:15:35;7.53;;;6.10;;
45328;SDS011;31063;48.356;10.896;2022-07-12T06:18:02;6.85;;;6.05;;
45328;SDS011;31063;48.356;10.896;2022-07-12T06:20:28;9.98;;;6.00;;
45328;SDS011;31063;48.356;10.896;2022-07-12T06:22:53;9.40;;;6.05;;
45328;SDS011;31063;48.356;10.896;2022-07-12T06:25:20;9.23;;;5.53;;
45328;SDS011;31063;48.356;10.896;2022-07-12T06:27:45;8.13;;;5.20;;
45328;SDS011;31063;48.356;10.896;2022-07-12T06:30:13;6.45;;;4.78;;
45328;SDS011;31063;48.356;10.896;2022-07-12T06:32:46;7.35;;;5.72;;
45328;SDS011;31063;48.356;10.896;2022-07-12T06:35:13;9.55;;;7.00;;
45328;SDS011;31063;48.356;10.896;2022-07-12T06:37:39;7.53;;;6.72;;
45328;SDS011;31063;48.356;10.896;2022-07-12T06:40:06;8.93;;;6.05;;
45328;SDS011;31063;48.356;10.896;2022-07-12T06:42:32;8.15;;;5.40;;
45328;SDS011;31063;48.356;10.896;2022-07-12T06:44:58;8.10;;;5.47;;
45328;SDS011;31063;48.356;10.896;2022-07-12T06:47:24;9.80;;;4.45;;
45328;SDS011;31063;48.356;10.896;2022-07-12T06:49:50;6.60;;;3.50;;
45328;SDS011;31063;48.356;10.896;2022-07-12T06:52:16;5.53;;;3.88;;
45328;SDS011;31063;48.356;10.896;2022-07-12T06:54:42;6.63;;;3.03;;
45328;SDS011;31063;48.356;10.896;2022-07-12T06:57:08;4.43;;;2.90;;
45328;SDS011;31063;48.356;10.896;2022-07-12T06:59:33;3.53;;;2.90;;
45328;SDS011;31063;48.356;10.896;2022-07-12T07:01:59;3.50;;;2.73;;
45328;SDS011;31063;48.356;10.896;2022-07-12T07:04:25;6.67;;;3.50;;
45328;SDS011;31063;48.356;10.896;2022-07-12T07:06:51;3.28;;;2.80;;
45328;SDS011;31063;48.356;10.896;2022-07-12T07:09:16;3.97;;;3.30;;
45328;SDS011;31063;48.356;10.896;2022-07-12T07:11:42;6.13;;;3.22;;
45328;SDS011;31063;48.356;10.896;2022-07-12T07:14:08;5.13;;;3.40;;
45328;SDS011;31063;48.356;10.896;2022-07-12T07:16:34;3.47;;;2.67;;
45328;SDS011;31063;48.356;10.896;2022-07-12T07:19:00;5.60;;;3.00;;
45328;SDS011;31063;48.356;10.896;2022-07-12T07:21:27;3.90;;;2.90;;
45328;SDS011;31063;48.356;10.896;2022-07-12T07:23:53;3.10;;;2.67;;
45328;SDS011;31063;48.356;10.896;2022-07-12T07:26:19;6.10;;;2.90;;
45328;SDS011;31063;48.356;10.896;2022-07-12T07:28:45;4.80;;;3.15;;
45328;SDS011;31063;48.356;10.896;2022-07-12T07:31:29;4.63;;;3.10;;
45328;SDS011;31063;48.356;10.896;2022-07-12T07:33:54;5.00;;;2.60;;
45328;SDS011;31063;48.356;10.896;2022-07-12T07:36:20;7.17;;;2.43;;
45328;SDS011;31063;48.356;10.896;2022-07-12T07:38:45;2.50;;;2.23;;
45328;SDS011;31063;48.356;10.896;2022-07-12T07:41:11;3.90;;;2.10;;
45328;SDS011;31063;48.356;10.896;2022-07-12T07:43:37;4.80;;;2.30;;
45328;SDS011;31063;48.356;10.896;2022-07-12T07:46:02;5.23;;;2.73;;
45328;SDS011;31063;48.356;10.896;2022-07-12T07:48:28;7.77;;;2.50;;
45328;SDS011;31063;48.356;10.896;2022-07-12T07:50:54;5.68;;;2.72;;
45328;SDS011;31063;48.356;10.896;2022-07-12T07:53:20;5.17;;;3.10;;
45328;SDS011;31063;48.356;10.896;2022-07-12T07:55:46;4.57;;;2.50;;
45328;SDS011;31063;48.356;10.896;2022-07-12T07:58:14;9.20;;;2.77;;
45328;SDS011;31063;48.356;10.896;2022-07-12T08:00:40;4.38;;;2.22;;
45328;SDS011;31063;48.356;10.896;2022-07-12T08:03:05;6.73;;;2.77;;
45328;SDS011;31063;48.356;10.896;2022-07-12T08:05:31;6.43;;;2.33;;
45328;SDS011;31063;48.356;10.896;2022-07-12T08:07:56;4.37;;;2.10;;
45328;SDS011;31063;48.356;10.896;2022-07-12T08:10:22;7.30;;;2.20;;
45328;SDS011;31063;48.356;10.896;2022-07-12T08:12:48;5.50;;;2.30;;
45328;SDS011;31063;48.356;10.896;2022-07-12T08:15:14;5.78;;;2.58;;
45328;SDS011;31063;48.356;10.896;2022-07-12T08:17:40;4.93;;;2.20;;
45328;SDS011;31063;48.356;10.896;2022-07-12T08:20:06;3.47;;;2.17;;
45328;SDS011;31063;48.356;10.896;2022-07-12T08:22:32;4.18;;;1.88;;
45328;SDS011;31063;48.356;10.896;2022-07-12T08:24:57;3.83;;;1.50;;
45328;SDS011;31063;48.356;10.896;2022-07-12T08:27:23;5.93;;;1.93;;
45328;SDS011;31063;48.356;10.896;2022-07-12T08:29:49;2.80;;;1.77;;
45328;SDS011;31063;48.356;10.896;2022-07-12T08:32:15;4.15;;;1.75;;
45328;SDS011;31063;48.356;10.896;2022-07-12T08:37:49;7.05;;;1.85;;
45328;SDS011;31063;48.356;10.896;2022-07-12T08:40:15;3.50;;;1.23;;
45328;SDS011;31063;48.356;10.896;2022-07-12T08:42:41;2.80;;;1.70;;
45328;SDS011;31063;48.356;10.896;2022-07-12T08:45:07;5.57;;;0.98;;
45328;SDS011;31063;48.356;10.896;2022-07-12T08:47:34;5.78;;;1.10;;
45328;SDS011;31063;48.356;10.896;2022-07-12T08:50:09;6.97;;;1.40;;
45328;SDS011;31063;48.356;10.896;2022-07-12T08:52:36;6.13;;;1.40;;
45328;SDS011;31063;48.356;10.896;2022-07-12T08:57:54;2.83;;;1.33;;
45328;SDS011;31063;48.356;10.896;2022-07-12T09:00:22;3.30;;;1.50;;
45328;SDS011;31063;48.356;10.896;2022-07-12T09:02:58;1.58;;;1.23;;
45328;SDS011;31063;48.356;10.896;2022-07-12T09:05:26;1.67;;;1.10;;
45328;SDS011;31063;48.356;10.896;2022-07-12T09:08:03;1.77;;;1.30;;
45328;SDS011;31063;48.356;10.896;2022-07-12T09:10:30;2.85;;;1.30;;
45328;SDS011;31063;48.356;10.896;2022-07-12T09:12:56;1.63;;;1.17;;
45328;SDS011;31063;48.356;10.896;2022-07-12T09:15:22;1.93;;;1.30;;
45328;SDS011;31063;48.356;10.896;2022-07-12T09:17:59;3.33;;;1.10;;
45328;SDS011;31063;48.356;10.896;2022-07-12T09:20:31;5.68;;;1.70;;
45328;SDS011;31063;48.356;10.896;2022-07-12T09:23:04;1.77;;;1.00;;
45328;SDS011;31063;48.356;10.896;2022-07-12T09:25:33;1.60;;;1.50;;
45328;SDS011;31063;48.356;10.896;2022-07-12T09:28:03;2.00;;;1.60;;
45328;SDS011;31063;48.356;10.896;2022-07-12T09:30:29;3.08;;;1.50;;
45328;SDS011;31063;48.356;10.896;2022-07-12T09:32:59;3.10;;;1.20;;
45328;SDS011;31063;48.356;10.896;2022-07-12T09:40:58;2.60;;;1.30;;
45328;SDS011;31063;48.356;10.896;2022-07-12T09:43:24;1.20;;;1.10;;
45328;SDS011;31063;48.356;10.896;2022-07-12T09:45:52;2.70;;;1.58;;
45328;SDS011;31063;48.356;10.896;2022-07-12T09:48:20;1.38;;;1.27;;
45328;SDS011;31063;48.356;10.896;2022-07-12T09:50:47;4.45;;;1.08;;
45328;SDS011;31063;48.356;10.896;2022-07-12T09:53:32;3.05;;;1.25;;
45328;SDS011;31063;48.356;10.896;2022-07-12T09:56:03;1.42;;;1.02;;
45328;SDS011;31063;48.356;10.896;2022-07-12T09:58:31;1.13;;;1.00;;
45328;SDS011;31063;48.356;10.896;2022-07-12T10:01:04;2.47;;;0.70;;
45328;SDS011;31063;48.356;10.896;2022-07-12T10:03:32;0.85;;;0.70;;
45328;SDS011;31063;48.356;10.896;2022-07-12T10:06:00;3.25;;;0.63;;
45328;SDS011;31063;48.356;10.896;2022-07-12T10:08:27;2.60;;;0.80;;
45328;SDS011;31063;48.356;10.896;2022-07-12T10:10:54;1.42;;;1.00;;
45328;SDS011;31063;48.356;10.896;2022-07-12T10:13:22;2.60;;;0.75;;
45328;SDS011;31063;48.356;10.896;2022-07-12T10:15:48;3.22;;;0.82;;
45328;SDS011;31063;48.356;10.896;2022-07-12T10:18:16;0.65;;;0.65;;
45328;SDS011;31063;48.356;10.896;2022-07-12T10:20:43;1.23;;;0.80;;
45328;SDS011;31063;48.356;10.896;2022-07-12T10:25:44;0.65;;;0.65;;
45328;SDS011;31063;48.356;10.896;2022-07-12T10:28:10;1.05;;;0.80;;
45328;SDS011;31063;48.356;10.896;2022-07-12T10:30:46;0.50;;;0.50;;
45328;SDS011;31063;48.356;10.896;2022-07-12T10:33:21;3.58;;;0.70;;
45328;SDS011;31063;48.356;10.896;2022-07-12T10:36:01;1.25;;;0.90;;
45328;SDS011;31063;48.356;10.896;2022-07-12T10:38:29;1.95;;;0.75;;
45328;SDS011;31063;48.356;10.896;2022-07-12T10:40:55;0.93;;;0.40;;
45328;SDS011;31063;48.356;10.896;2022-07-12T10:43:21;0.65;;;0.60;;
45328;SDS011;31063;48.356;10.896;2022-07-12T10:46:20;1.45;;;0.73;;
45328;SDS011;31063;48.356;10.896;2022-07-12T10:48:49;0.63;;;0.63;;
45328;SDS011;31063;48.356;10.896;2022-07-12T10:51:15;1.30;;;0.60;;
45328;SDS011;31063;48.356;10.896;2022-07-12T10:53:44;1.17;;;0.50;;
45328;SDS011;31063;48.356;10.896;2022-07-12T10:56:20;0.80;;;0.70;;
45328;SDS011;31063;48.356;10.896;2022-07-12T10:58:53;0.65;;;0.50;;
45328;SDS011;31063;48.356;10.896;2022-07-12T11:03:47;1.10;;;0.60;;
45328;SDS011;31063;48.356;10.896;2022-07-12T11:06:21;1.48;;;0.60;;
45328;SDS011;31063;48.356;10.896;2022-07-12T11:08:51;0.60;;;0.60;;
45328;SDS011;31063;48.356;10.896;2022-07-12T11:11:20;0.93;;;0.47;;
45328;SDS011;31063;48.356;10.896;2022-07-12T11:13:47;2.05;;;0.80;;
45328;SDS011;31063;48.356;10.896;2022-07-12T11:16:13;2.63;;;0.65;;
45328;SDS011;31063;48.356;10.896;2022-07-12T11:18:39;1.85;;;0.68;;
45328;SDS011;31063;48.356;10.896;2022-07-12T11:21:05;3.03;;;0.70;;
45328;SDS011;31063;48.356;10.896;2022-07-12T11:25:57;2.38;;;0.68;;
45328;SDS011;31063;48.356;10.896;2022-07-12T11:28:25;2.20;;;0.68;;
45328;SDS011;31063;48.356;10.896;2022-07-12T11:30:53;0.60;;;0.60;;
45328;SDS011;31063;48.356;10.896;2022-07-12T11:33:26;0.73;;;0.50;;
45328;SDS011;31063;48.356;10.896;2022-07-12T11:35:57;0.93;;;0.70;;
45328;SDS011;31063;48.356;10.896;2022-07-12T11:38:24;2.70;;;0.70;;
45328;SDS011;31063;48.356;10.896;2022-07-12T11:40:54;1.58;;;0.73;;
45328;SDS011;31063;48.356;10.896;2022-07-12T11:43:24;2.35;;;0.60;;
45328;SDS011;31063;48.356;10.896;2022-07-12T11:45:51;0.52;;;0.52;;
45328;SDS011;31063;48.356;10.896;2022-07-12T11:48:18;1.23;;;0.60;;
45328;SDS011;31063;48.356;10.896;2022-07-12T11:50:44;0.52;;;0.52;;
45328;SDS011;31063;48.356;10.896;2022-07-12T11:55:44;1.05;;;0.50;;
45328;SDS011;31063;48.356;10.896;2022-07-12T11:58:11;1.83;;;0.50;;
45328;SDS011;31063;48.356;10.896;2022-07-12T12:00:38;0.50;;;0.50;;
45328;SDS011;31063;48.356;10.896;2022-07-12T12:03:04;1.65;;;0.50;;
45328;SDS011;31063;48.356;10.896;2022-07-12T12:05:30;3.60;;;0.77;;
45328;SDS011;31063;48.356;10.896;2022-07-12T12:07:57;1.10;;;0.50;;
45328;SDS011;31063;48.356;10.896;2022-07-12T12:10:23;0.45;;;0.43;;
45328;SDS011;31063;48.356;10.896;2022-07-12T12:12:49;0.50;;;0.50;;
45328;SDS011;31063;48.356;10.896;2022-07-12T12:15:21;1.80;;;0.52;;
45328;SDS011;31063;48.356;10.896;2022-07-12T12:17:58;0.40;;;0.40;;
45328;SDS011;31063;48.356;10.896;2022-07-12T12:23:01;0.47;;;0.47;;
45328;SDS011;31063;48.356;10.896;2022-07-12T12:25:28;1.33;;;0.75;;
45328;SDS011;31063;48.356;10.896;2022-07-12T12:27:59;2.38;;;0.50;;
45328;SDS011;31063;48.356;10.896;2022-07-12T12:30:27;0.75;;;0.50;;
45328;SDS011;31063;48.356;10.896;2022-07-12T12:32:55;2.25;;;0.65;;
45328;SDS011;31063;48.356;10.896;2022-07-12T12:35:23;0.82;;;0.40;;
45328;SDS011;31063;48.356;10.896;2022-07-12T12:37:56;2.13;;;0.50;;
45328;SDS011;31063;48.356;10.896;2022-07-12T12:40:30;0.30;;;0.30;;
45328;SDS011;31063;48.356;10.896;2022-07-12T12:45:36;2.35;;;0.88;;
45328;SDS011;31063;48.356;10.896;2022-07-12T12:48:18;0.88;;;0.60;;
45328;SDS011;31063;48.356;10.896;2022-07-12T12:50:46;0.88;;;0.52;;
45328;SDS011;31063;48.356;10.896;2022-07-12T12:53:17;1.10;;;0.52;;
45328;SDS011;31063;48.356;10.896;2022-07-12T12:55:48;1.33;;;0.50;;
45328;SDS011;31063;48.356;10.896;2022-07-12T12:58:19;0.77;;;0.50;;
45328;SDS011;31063;48.356;10.896;2022-07-12T13:00:47;2.33;;;0.70;;
45328;SDS011;31063;48.356;10.896;2022-07-12T13:03:15;2.10;;;0.50;;
45328;SDS011;31063;48.356;10.896;2022-07-12T13:05:44;0.75;;;0.45;;
45328;SDS011;31063;48.356;10.896;2022-07-12T13:08:11;0.73;;;0.50;;
45328;SDS011;31063;48.356;10.896;2022-07-12T13:10:38;2.08;;;0.63;;
45328;SDS011;31063;48.356;10.896;2022-07-12T13:13:05;2.15;;;0.63;;
45328;SDS011;31063;48.356;10.896;2022-07-12T13:15:32;2.35;;;0.50;;
45328;SDS011;31063;48.356;10.896;2022-07-12T13:17:58;2.33;;;0.65;;
45328;SDS011;31063;48.356;10.896;2022-07-12T13:20:25;2.45;;;0.77;;
45328;SDS011;31063;48.356;10.896;2022-07-12T13:22:51;3.13;;;0.60;;
45328;SDS011;31063;48.356;10.896;2022-07-12T13:25:18;4.65;;;0.73;;
45328;SDS011;31063;48.356;10.896;2022-07-12T13:27:44;2.55;;;0.60;;
45328;SDS011;31063;48.356;10.896;2022-07-12T13:30:10;0.68;;;0.40;;
45328;SDS011;31063;48.356;10.896;2022-07-12T13:32:38;1.15;;;0.55;;
45328;SDS011;31063;48.356;10.896;2022-07-12T13:35:04;1.35;;;0.60;;
45328;SDS011;31063;48.356;10.896;2022-07-12T13:37:31;1.13;;;0.50;;
45328;SDS011;31063;48.356;10.896;2022-07-12T13:39:57;0.73;;;0.60;;
45328;SDS011;31063;48.356;10.896;2022-07-12T13:45:09;5.70;;;0.70;;
45328;SDS011;31063;48.356;10.896;2022-07-12T13:47:37;2.40;;;0.80;;
45328;SDS011;31063;48.356;10.896;2022-07-12T13:52:32;1.00;;;0.70;;
45328;SDS011;31063;48.356;10.896;2022-07-12T13:54:57;2.17;;;0.60;;
45328;SDS011;31063;48.356;10.896;2022-07-12T13:57:23;0.52;;;0.47;;
45328;SDS011;31063;48.356;10.896;2022-07-12T13:59:49;1.75;;;0.65;;
45328;SDS011;31063;48.356;10.896;2022-07-12T14:02:16;1.05;;;0.63;;
45328;SDS011;31063;48.356;10.896;2022-07-12T14:04:42;2.80;;;0.75;;
45328;SDS011;31063;48.356;10.896;2022-07-12T14:07:07;0.88;;;0.52;;
45328;SDS011;31063;48.356;10.896;2022-07-12T14:09:33;1.20;;;0.70;;
45328;SDS011;31063;48.356;10.896;2022-07-12T14:11:59;4.25;;;0.73;;
45328;SDS011;31063;48.356;10.896;2022-07-12T14:14:27;2.22;;;0.45;;
45328;SDS011;31063;48.356;10.896;2022-07-12T14:17:11;0.88;;;0.55;;
45328;SDS011;31063;48.356;10.896;2022-07-12T14:19:37;0.70;;;0.52;;
45328;SDS011;31063;48.356;10.896;2022-07-12T14:22:02;0.47;;;0.45;;
45328;SDS011;31063;48.356;10.896;2022-07-12T14:24:28;3.08;;;0.52;;
45328;SDS011;31063;48.356;10.896;2022-07-12T14:26:54;2.83;;;0.60;;
45328;SDS011;31063;48.356;10.896;2022-07-12T14:29:19;0.50;;;0.50;;
45328;SDS011;31063;48.356;10.896;2022-07-12T14:31:45;1.15;;;0.73;;
45328;SDS011;31063;48.356;10.896;2022-07-12T14:34:11;1.85;;;0.60;;
45328;SDS011;31063;48.356;10.896;2022-07-12T14:36:37;1.15;;;0.70;;
45328;SDS011;31063;48.356;10.896;2022-07-12T14:39:03;0.93;;;0.55;;
45328;SDS011;31063;48.356;10.896;2022-07-12T14:41:29;1.25;;;0.50;;
45328;SDS011;31063;48.356;10.896;2022-07-12T14:43:55;1.98;;;0.40;;
45328;SDS011;31063;48.356;10.896;2022-07-12T14:46:21;0.50;;;0.50;;
45328;SDS011;31063;48.356;10.896;2022-07-12T14:48:47;3.25;;;0.60;;
45328;SDS011;31063;48.356;10.896;2022-07-12T14:51:13;0.50;;;0.50;;
45328;SDS011;31063;48.356;10.896;2022-07-12T14:53:38;4.47;;;0.50;;
45328;SDS011;31063;48.356;10.896;2022-07-12T14:56:04;2.05;;;0.60;;
45328;SDS011;31063;48.356;10.896;2022-07-12T14:58:30;0.88;;;0.57;;
45328;SDS011;31063;48.356;10.896;2022-07-12T15:00:56;0.95;;;0.40;;
45328;SDS011;31063;48.356;10.896;2022-07-12T15:03:22;1.75;;;0.40;;
45328;SDS011;31063;48.356;10.896;2022-07-12T15:05:48;1.85;;;0.60;;
45328;SDS011;31063;48.356;10.896;2022-07-12T15:08:14;1.10;;;0.60;;
45328;SDS011;31063;48.356;10.896;2022-07-12T15:10:39;1.00;;;0.40;;